Time;durP1;ratioP1;P1;durP2;ratioP2;P2;SDS_P1;SDS_P2;PMS_P1;PMS_P2;Temp;Humidity;BMP_temperature;BMP_pressure;BME280_temperature;BME280_humidity;BME280_pressure;Samples;Min_cycle;Max_cycle;Signal;HPM_P1;HPM_P2
2022/05/21 00:01:11;;;;;;;12.40;7.72;;;;;;;14.17;69.00;100044.59;5010471;28;20065;-62
2022/05/21 00:03:36;;;;;;;12.52;8.30;;;;;;;13.94;69.00;100054.78;5011454;28;20124;-62
2022/05/21 00:06:01;;;;;;;10.40;7.03;;;;;;;13.58;70.10;100056.91;5014655;28;20052;-63
2022/05/21 00:08:27;;;;;;;11.60;8.75;;;;;;;13.34;70.76;100056.50;5014217;28;20080;-62
2022/05/21 00:10:52;;;;;;;12.98;6.97;;;;;;;13.18;71.50;100056.50;5014523;28;20037;-62
2022/05/21 00:13:18;;;;;;;9.20;7.10;;;;;;;13.06;71.66;100064.16;5013418;28;20471;-62
2022/05/21 00:15:44;;;;;;;9.25;6.78;;;;;;;12.97;72.48;100059.38;5012357;28;20038;-64
2022/05/21 00:18:09;;;;;;;9.32;6.70;;;;;;;12.89;73.25;100061.59;5012218;28;20517;-61
2022/05/21 00:20:50;;;;;;;9.38;6.30;;;;;;;12.81;73.02;100064.66;5011362;28;20065;-63
2022/05/21 00:23:25;;;;;;;9.43;6.70;;;;;;;12.79;72.73;100061.22;5012618;28;20153;-62
2022/05/21 00:25:56;;;;;;;;;;;;;;;12.68;73.83;100068.91;5010883;28;20744;-63
2022/05/21 00:28:22;;;;;;;9.55;6.13;;;;;;;12.60;73.46;100073.72;5010160;28;19914;-61
2022/05/21 00:30:48;;;;;;;10.80;7.88;;;;;;;12.56;74.18;100067.75;5009711;28;20042;-62
2022/05/21 00:33:14;;;;;;;13.18;7.43;;;;;;;12.52;74.36;100070.63;5008212;28;20041;-63
2022/05/21 00:35:40;;;;;;;9.18;6.45;;;;;;;12.46;74.48;100080.59;5009436;28;20037;-63
2022/05/21 00:38:05;;;;;;;7.70;6.05;;;;;;;12.47;74.12;100070.88;5009156;28;20100;-62
2022/05/21 00:40:31;;;;;;;9.88;6.43;;;;;;;12.45;74.73;100070.97;5009596;28;20452;-62
2022/05/21 00:42:56;;;;;;;11.70;6.60;;;;;;;12.42;74.35;100070.25;5010072;28;20386;-62
2022/05/21 00:45:22;;;;;;;7.95;5.10;;;;;;;12.42;73.87;100070.25;5012683;28;20101;-62
2022/05/21 00:47:47;;;;;;;12.30;7.03;;;;;;;12.36;74.56;100074.09;5009481;28;20065;-62
2022/05/21 00:50:16;;;;;;;7.80;5.63;;;;;;;12.32;74.05;100064.59;5008765;28;20630;-60
2022/05/21 00:52:41;;;;;;;9.98;5.95;;;;;;;12.30;74.63;100070.91;5010922;28;20037;-62
2022/05/21 00:55:23;;;;;;;12.63;6.55;;;;;;;12.25;74.38;100077.28;5005247;28;20037;-63
2022/05/21 01:00:45;;;;;;;8.15;5.75;;;;;;;12.23;74.70;100060.66;4995712;28;20135;-64
2022/05/21 01:03:12;;;;;;;7.68;5.05;;;;;;;12.20;74.74;100065.22;5019999;28;20088;-65
2022/05/21 01:05:39;;;;;;;5.65;4.25;;;;;;;12.15;74.27;100068.09;5008824;28;20045;-64
2022/05/21 01:08:05;;;;;;;7.50;5.72;;;;;;;12.10;75.06;100070.13;5008959;28;20124;-64
2022/05/21 01:10:36;;;;;;;8.93;5.68;;;;;;;12.00;74.62;100066.25;5009052;28;20234;-64
2022/05/21 01:13:06;;;;;;;7.85;5.63;;;;;;;11.93;75.34;100065.69;5007407;28;20045;-64
2022/05/21 01:15:40;;;;;;;7.95;5.18;;;;;;;11.90;75.58;100063.22;5009261;28;20045;-64
2022/05/21 01:18:07;;;;;;;10.07;6.13;;;;;;;11.88;75.40;100061.59;5010466;28;20042;-63
2022/05/21 01:20:41;;;;;;;7.82;5.30;;;;;;;11.87;75.41;100068.66;5011660;28;20667;-64
2022/05/21 01:23:07;;;;;;;10.27;5.57;;;;;;;11.87;75.60;100068.66;5011353;28;20547;-64
2022/05/21 01:25:35;;;;;;;7.68;5.75;;;;;;;11.84;75.05;100074.06;5011222;28;20095;-66
2022/05/21 01:28:03;;;;;;;7.28;4.35;;;;;;;11.83;75.35;100070.56;5008519;28;20045;-66
2022/05/21 01:30:39;;;;;;;8.55;4.57;;;;;;;11.81;75.01;100069.81;5009925;28;20107;-66
2022/05/21 01:33:07;;;;;;;8.07;4.20;;;;;;;11.82;75.22;100073.28;5009537;28;20038;-64
2022/05/21 01:35:32;;;;;;;6.97;4.63;;;;;;;11.84;74.90;100076.72;5009509;28;20041;-64
2022/05/21 01:37:58;;;;;;;11.32;4.78;;;;;;;11.87;74.35;100070.47;5009212;28;20030;-64
2022/05/21 01:40:24;;;;;;;10.13;4.82;;;;;;;11.88;74.33;100065.06;5009400;28;20056;-64
2022/05/21 01:45:34;;;;;;;7.75;4.43;;;;;;;11.88;73.36;100058.94;5009916;28;20048;-65
2022/05/21 01:47:59;;;;;;;5.78;3.92;;;;;;;11.88;73.72;100061.59;5008749;28;20030;-64
2022/05/21 01:50:25;;;;;;;7.63;3.65;;;;;;;11.91;73.61;100058.78;5008182;28;20034;-63
2022/05/21 01:52:50;;;;;;;6.05;4.03;;;;;;;11.89;73.64;100056.25;5012186;28;20575;-64
2022/05/21 01:55:16;;;;;;;10.75;5.35;;;;;;;11.89;73.73;100058.00;5010903;28;20045;-63
2022/05/21 01:57:41;;;;;;;8.32;4.28;;;;;;;11.88;73.52;100053.66;5009466;28;20096;-64
2022/05/21 02:00:07;;;;;;;5.60;3.42;;;;;;;11.91;73.56;100057.03;5008482;28;20042;-65
2022/05/21 02:02:33;;;;;;;8.27;3.40;;;;;;;11.90;72.81;100057.09;5008172;28;20037;-64
2022/05/21 02:04:59;;;;;;;4.72;2.95;;;;;;;11.89;72.72;100056.25;5007753;28;20061;-64
2022/05/21 02:07:24;;;;;;;10.73;3.75;;;;;;;11.85;72.68;100057.28;5007727;28;20120;-63
2022/05/21 02:09:49;;;;;;;9.63;2.80;;;;;;;11.85;72.78;100054.63;5007860;28;20737;-64
2022/05/21 02:12:16;;;;;;;7.32;3.65;;;;;;;11.87;72.82;100049.31;5007448;28;20046;-63
2022/05/21 02:14:43;;;;;;;10.10;3.35;;;;;;;11.88;73.03;100057.16;5007824;28;20140;-66
2022/05/21 02:17:08;;;;;;;4.75;2.65;;;;;;;11.89;72.43;100055.34;5007714;28;20049;-64
2022/05/21 02:19:34;;;;;;;11.52;3.60;;;;;;;11.91;72.36;100053.50;5007667;28;20038;-64
2022/05/21 02:21:59;;;;;;;5.38;2.53;;;;;;;11.95;72.25;100055.06;5007511;28;20033;-64
2022/05/21 02:24:24;;;;;;;8.98;3.33;;;;;;;11.95;71.94;100053.28;5006948;28;20421;-64
2022/05/21 02:26:50;;;;;;;6.22;3.05;;;;;;;11.92;71.64;100052.59;5007613;28;20050;-63
2022/05/21 02:29:15;;;;;;;9.75;3.88;;;;;;;11.96;71.82;100056.75;5007573;28;20072;-62
2022/05/21 02:31:40;;;;;;;4.95;2.58;;;;;;;11.97;71.58;100053.19;5008066;28;20053;-63
2022/05/21 02:34:06;;;;;;;8.85;4.30;;;;;;;11.95;71.80;100050.63;5008163;28;20049;-63
2022/05/21 02:39:30;;;;;;;7.53;3.00;;;;;;;11.97;71.33;100056.69;5007307;28;20567;-63
2022/05/21 02:41:58;;;;;;;12.73;3.10;;;;;;;11.94;71.35;100045.44;5005895;28;20118;-64
2022/05/21 02:44:23;;;;;;;9.18;2.92;;;;;;;11.87;71.41;100046.69;5007292;28;20037;-63
2022/05/21 02:46:48;;;;;;;5.63;2.95;;;;;;;11.82;71.47;100050.38;5006819;28;20067;-63
2022/05/21 02:49:14;;;;;;;7.00;3.03;;;;;;;11.79;71.54;100045.25;5007319;28;20537;-63
2022/05/21 02:51:39;;;;;;;14.98;3.25;;;;;;;11.82;71.04;100049.53;5007424;28;20060;-64
2022/05/21 02:54:06;;;;;;;13.07;3.20;;;;;;;11.85;71.09;100043.22;5006988;28;20393;-65
2022/05/21 02:56:32;;;;;;;8.00;3.17;;;;;;;11.85;71.17;100041.44;5006463;28;20101;-65
2022/05/21 02:58:58;;;;;;;6.88;2.90;;;;;;;11.81;71.25;100045.16;5007084;28;20084;-65
2022/05/21 03:01:23;;;;;;;6.53;3.22;;;;;;;11.73;72.14;100047.31;5006786;28;20041;-66
2022/05/21 03:03:48;;;;;;;8.68;2.78;;;;;;;11.72;71.26;100048.28;5007128;28;20037;-64
2022/05/21 03:06:14;;;;;;;10.07;3.70;;;;;;;11.67;71.86;100056.41;5006727;28;20054;-65
2022/05/21 03:11:23;;;;;;;7.82;2.92;;;;;;;11.62;72.08;100053.16;4987261;28;20049;-64
2022/05/21 03:13:48;;;;;;;6.28;3.05;;;;;;;11.65;72.00;100055.63;4987107;28;20038;-65
2022/05/21 03:16:13;;;;;;;6.45;3.08;;;;;;;11.62;71.98;100071.63;4987110;28;20534;-65
2022/05/21 03:18:39;;;;;;;5.95;2.25;;;;;;;11.59;72.06;100071.75;4987726;28;20050;-64
2022/05/21 03:21:04;;;;;;;8.05;2.75;;;;;;;11.59;72.51;100064.72;4987290;28;20034;-63
2022/05/21 03:23:30;;;;;;;6.57;3.33;;;;;;;11.60;72.32;100065.56;4987145;28;20490;-65
2022/05/21 03:25:55;;;;;;;4.60;2.40;;;;;;;11.61;71.78;100059.34;4990567;28;20141;-65
2022/05/21 03:28:21;;;;;;;6.60;3.13;;;;;;;11.57;72.08;100065.72;4990871;28;20034;-64
2022/05/21 03:30:46;;;;;;;7.68;2.97;;;;;;;11.60;71.95;100062.94;4991134;28;20413;-65
2022/05/21 03:33:12;;;;;;;8.73;3.83;;;;;;;11.61;72.37;100067.28;4991203;28;20058;-65
2022/05/21 03:35:37;;;;;;;5.85;3.05;;;;;;;11.62;72.18;100069.00;4991631;28;20049;-65
2022/05/21 03:38:04;;;;;;;5.80;2.65;;;;;;;11.60;72.17;100065.56;4990638;28;20141;-64
2022/05/21 03:40:31;;;;;;;8.13;2.88;;;;;;;11.65;72.17;100070.63;4990909;28;20092;-63
2022/05/21 03:42:57;;;;;;;9.35;5.90;;;;;;;11.64;71.73;100077.69;4991052;28;20042;-63
2022/05/21 03:45:23;;;;;;;5.72;2.78;;;;;;;11.68;71.45;100076.59;4990860;28;20050;-64
2022/05/21 03:47:50;;;;;;;5.40;2.63;;;;;;;11.69;72.12;100074.81;4990642;28;20092;-63
2022/05/21 03:50:18;;;;;;;4.35;2.65;;;;;;;11.76;71.45;100071.81;4990433;28;20049;-63
2022/05/21 03:52:44;;;;;;;7.15;2.75;;;;;;;11.72;71.07;100072.88;4990621;28;20145;-63
2022/05/21 03:55:10;;;;;;;9.50;3.53;;;;;;;11.71;71.63;100078.22;4991147;28;20121;-63
2022/05/21 03:57:35;;;;;;;4.38;2.65;;;;;;;11.74;71.77;100086.88;4990146;28;20410;-63
2022/05/21 04:00:01;;;;;;;6.28;3.22;;;;;;;11.76;71.77;100082.38;4990800;28;20086;-63
2022/05/21 04:02:27;;;;;;;8.98;4.05;;;;;;;11.78;71.63;100083.13;4991009;28;20092;-61
2022/05/21 04:04:53;;;;;;;7.57;3.15;;;;;;;11.85;71.52;100086.34;4989340;28;20046;-62
2022/05/21 04:07:19;;;;;;;4.57;2.80;;;;;;;11.88;71.35;100090.66;4990845;28;20045;-62
2022/05/21 04:09:44;;;;;;;7.43;3.13;;;;;;;11.90;71.21;100092.28;4992933;28;20046;-64
2022/05/21 04:12:10;;;;;;;7.18;3.20;;;;;;;11.93;71.59;100092.13;4992644;28;20039;-63
2022/05/21 04:14:35;;;;;;;7.15;2.47;;;;;;;11.96;71.46;100083.19;4988902;28;20490;-62
2022/05/21 04:17:03;;;;;;;5.70;2.60;;;;;;;11.96;71.59;100097.28;4990097;28;20637;-63
2022/05/21 04:19:29;;;;;;;4.90;2.67;;;;;;;11.97;71.08;100090.19;4990262;28;20084;-63
2022/05/21 04:21:55;;;;;;;6.65;3.05;;;;;;;11.99;71.11;100099.75;4990025;28;20565;-62
2022/05/21 04:24:21;;;;;;;6.80;2.83;;;;;;;12.02;71.37;100094.31;4990682;28;20088;-63
2022/05/21 04:26:47;;;;;;;9.40;4.03;;;;;;;12.07;71.05;100094.09;4990036;28;20038;-62
2022/05/21 04:29:16;;;;;;;10.25;3.28;;;;;;;12.11;71.03;100098.28;4990455;28;20121;-63
2022/05/21 04:31:44;;;;;;;3.90;2.80;;;;;;;12.15;70.55;100112.19;4990510;28;20172;-63
2022/05/21 04:34:10;;;;;;;6.53;3.13;;;;;;;12.13;71.05;100106.97;4989955;28;20045;-61
2022/05/21 04:36:35;;;;;;;8.65;2.75;;;;;;;12.14;70.62;100097.28;4989756;28;20056;-62
2022/05/21 04:39:01;;;;;;;13.40;3.75;;;;;;;12.17;70.85;100100.59;4990074;28;20677;-62
2022/05/21 04:41:26;;;;;;;7.75;3.13;;;;;;;12.21;71.21;100104.81;5000800;28;20045;-63
2022/05/21 04:43:53;;;;;;;7.03;3.10;;;;;;;12.25;71.14;100105.50;5009416;28;20057;-64
2022/05/21 04:46:20;;;;;;;6.07;2.83;;;;;;;12.31;71.14;100109.63;5008983;28;20144;-64
2022/05/21 04:48:46;;;;;;;10.10;2.90;;;;;;;12.35;71.06;100112.03;5009365;28;20076;-63
2022/05/21 04:51:13;;;;;;;6.18;3.53;;;;;;;12.36;71.20;100111.09;5009622;28;20053;-61
2022/05/21 04:53:39;;;;;;;9.43;3.58;;;;;;;12.38;71.24;100106.59;5009497;28;20124;-64
2022/05/21 04:56:05;;;;;;;8.80;3.45;;;;;;;12.38;71.15;100111.00;5009191;28;20133;-64
2022/05/21 04:58:32;;;;;;;12.35;3.75;;;;;;;12.42;70.91;100107.28;5009350;28;20038;-63
2022/05/21 05:00:57;;;;;;;8.75;3.28;;;;;;;12.49;71.45;100118.41;5008390;28;20448;-63
2022/05/21 05:03:23;;;;;;;9.68;3.13;;;;;;;12.61;70.67;100115.97;5008872;28;20037;-66
2022/05/21 05:05:49;;;;;;;6.80;3.05;;;;;;;12.66;71.08;100111.28;5008788;28;20038;-66
2022/05/21 05:08:16;;;;;;;15.50;4.32;;;;;;;12.67;70.40;100117.44;5008462;28;20046;-66
2022/05/21 05:10:43;;;;;;;14.82;5.85;;;;;;;12.70;70.43;100121.69;5009021;28;20057;-65
2022/05/21 05:13:09;;;;;;;9.35;3.08;;;;;;;12.77;70.02;100117.81;5008759;28;20041;-65
2022/05/21 05:15:34;;;;;;;17.20;4.55;;;;;;;12.93;69.82;100117.84;5009275;28;20050;-62
2022/05/21 05:18:12;;;;;;;16.23;4.88;;;;;;;12.99;69.64;100121.00;5008723;28;20092;-64
2022/05/21 05:20:38;;;;;;;9.05;3.38;;;;;;;13.00;68.86;100114.78;5009026;28;20509;-65
2022/05/21 05:23:05;;;;;;;10.02;3.78;;;;;;;13.03;69.34;100119.91;5008644;28;20053;-65
2022/05/21 05:25:31;;;;;;;8.07;3.15;;;;;;;13.05;69.26;100125.13;5009286;28;20120;-64
2022/05/21 05:27:57;;;;;;;12.73;3.78;;;;;;;13.05;68.72;100117.19;5008866;28;20033;-64
2022/05/21 05:30:23;;;;;;;8.32;3.00;;;;;;;13.07;69.26;100121.47;5007307;28;20052;-63
2022/05/21 05:32:49;;;;;;;8.90;3.05;;;;;;;13.15;68.68;100112.25;5009006;28;20121;-63
2022/05/21 05:35:15;;;;;;;9.55;3.58;;;;;;;13.20;68.44;100116.34;5008809;28;20095;-62
2022/05/21 05:37:41;;;;;;;12.23;5.07;;;;;;;13.20;68.45;100116.34;5008884;28;20041;-62
2022/05/21 05:40:11;;;;;;;8.15;3.22;;;;;;;13.24;68.04;100122.31;5010231;28;20402;-61
2022/05/21 05:42:37;;;;;;;10.80;3.08;;;;;;;13.26;68.08;100120.44;5010779;28;20517;-64
2022/05/21 05:45:08;;;;;;;10.95;3.33;;;;;;;13.30;68.17;100119.38;5010112;28;20398;-63
2022/05/21 05:47:33;;;;;;;10.07;3.50;;;;;;;13.34;68.05;100128.88;5008710;28;20049;-59
2022/05/21 05:50:00;;;;;;;7.90;3.40;;;;;;;13.35;67.99;100124.44;5008796;28;20091;-63
2022/05/21 05:52:26;;;;;;;9.88;3.88;;;;;;;13.42;67.94;100131.94;5008165;28;20062;-63
2022/05/21 05:54:52;;;;;;;7.47;3.58;;;;;;;13.40;67.70;100128.53;5008623;28;20120;-63
2022/05/21 05:57:17;;;;;;;7.22;3.72;;;;;;;13.43;67.90;100138.09;5008643;28;20881;-62
2022/05/21 05:59:49;;;;;;;8.35;3.33;;;;;;;13.46;67.52;100137.91;5008896;28;20087;-64
2022/05/21 06:05:11;;;;;;;6.95;3.38;;;;;;;13.47;67.27;100140.50;5008171;28;20053;-62
2022/05/21 06:07:45;;;;;;;11.20;4.60;;;;;;;13.47;66.94;100143.13;5008021;28;20121;-62
2022/05/21 06:10:12;;;;;;;10.05;4.80;;;;;;;13.48;67.41;100138.69;5008198;28;20132;-60
2022/05/21 06:12:38;;;;;;;6.30;3.63;;;;;;;13.55;66.63;100139.22;5008321;28;20038;-63
2022/05/21 06:15:03;;;;;;;8.35;3.65;;;;;;;13.68;66.58;100142.88;5008162;28;20054;-62
2022/05/21 06:17:29;;;;;;;10.82;4.13;;;;;;;13.76;66.57;100140.66;5007791;28;20104;-63
2022/05/21 06:19:54;;;;;;;13.77;4.15;;;;;;;13.81;66.83;100135.94;5008051;28;20057;-63
2022/05/21 06:22:19;;;;;;;14.18;4.15;;;;;;;14.02;66.29;100138.28;5007795;28;20516;-65
2022/05/21 06:24:45;;;;;;;10.55;3.55;;;;;;;14.05;65.56;100138.97;5008168;28;20121;-62
2022/05/21 06:27:10;;;;;;;10.43;4.43;;;;;;;14.09;65.59;100135.19;5007889;28;20033;-65
2022/05/21 06:29:36;;;;;;;11.18;4.22;;;;;;;14.13;65.98;100138.53;5007611;28;20068;-63
2022/05/21 06:32:03;;;;;;;12.30;3.95;;;;;;;14.13;65.32;100142.03;5007673;28;20048;-61
2022/05/21 06:34:29;;;;;;;9.98;4.45;;;;;;;14.16;65.04;100154.25;5007336;28;20040;-63
2022/05/21 06:36:54;;;;;;;8.98;3.58;;;;;;;14.19;64.98;100146.13;5005389;28;20033;-61
2022/05/21 06:39:20;;;;;;;11.70;5.65;;;;;;;14.14;65.14;100154.34;5005728;28;20069;-63
2022/05/21 06:41:45;;;;;;;8.75;3.60;;;;;;;14.28;65.09;100150.06;5008472;28;20065;-62
2022/05/21 06:44:10;;;;;;;10.88;4.63;;;;;;;14.33;64.50;100162.09;5008821;28;20038;-63
2022/05/21 06:46:36;;;;;;;9.48;3.50;;;;;;;14.30;64.40;100164.94;5007544;28;20433;-62
2022/05/21 06:49:02;;;;;;;13.65;4.57;;;;;;;14.39;64.37;100160.88;5008365;28;20121;-62
2022/05/21 06:51:27;;;;;;;10.90;4.60;;;;;;;14.38;64.50;100169.78;5008160;28;20041;-63
2022/05/21 06:53:53;;;;;;;15.10;3.90;;;;;;;14.38;64.56;100172.44;5008736;28;20045;-62
2022/05/21 06:56:18;;;;;;;13.52;5.18;;;;;;;14.55;64.05;100169.66;5009010;28;20060;-61
2022/05/21 06:58:44;;;;;;;9.13;4.00;;;;;;;14.54;63.47;100167.94;5008370;28;20042;-63
2022/05/21 07:01:09;;;;;;;8.75;4.05;;;;;;;14.68;63.67;100184.84;5007901;28;20206;-62
2022/05/21 07:03:35;;;;;;;12.98;4.32;;;;;;;14.73;63.86;100180.97;5007696;28;20042;-64
2022/05/21 07:08:47;;;;;;;17.85;5.07;;;;;;;14.76;62.77;100180.78;5007017;28;20127;-62
2022/05/21 07:11:13;;;;;;;13.38;5.30;;;;;;;14.70;63.60;100183.81;5006517;28;20037;-61
2022/05/21 07:13:39;;;;;;;12.88;4.78;;;;;;;14.75;63.20;100180.88;5006869;28;20088;-64
2022/05/21 07:16:05;;;;;;;18.52;6.22;;;;;;;14.79;62.88;100179.72;5006706;28;20065;-63
2022/05/21 07:18:30;;;;;;;10.25;3.72;;;;;;;14.78;63.22;100170.06;5007040;28;20038;-63
2022/05/21 07:20:56;;;;;;;10.50;3.92;;;;;;;14.74;63.25;100171.19;5006594;28;20041;-65
2022/05/21 07:23:24;;;;;;;10.88;4.07;;;;;;;14.82;63.13;100175.13;5007093;28;20046;-64
2022/05/21 07:25:49;;;;;;;8.45;4.70;;;;;;;15.23;61.87;100174.38;5006623;28;20042;-63
2022/05/21 07:28:16;;;;;;;10.00;4.18;;;;;;;15.37;61.62;100173.50;5006597;28;20049;-65
2022/05/21 07:30:43;;;;;;;13.38;5.68;;;;;;;15.43;61.61;100177.56;5006737;28;20057;-64
2022/05/21 07:33:11;;;;;;;15.70;4.75;;;;;;;15.26;61.96;100176.00;5006304;28;20504;-64
2022/05/21 07:35:37;;;;;;;12.35;4.88;;;;;;;15.50;62.00;100170.91;5006370;28;20048;-64
2022/05/21 07:38:04;;;;;;;10.57;4.85;;;;;;;15.62;61.72;100178.09;5005889;28;20084;-66
2022/05/21 07:40:30;;;;;;;9.93;4.00;;;;;;;15.67;61.13;100172.50;5006137;28;20045;-63
2022/05/21 07:42:55;;;;;;;12.93;6.18;;;;;;;15.60;61.53;100177.38;5006597;28;20056;-63
2022/05/21 07:45:21;;;;;;;14.30;5.63;;;;;;;15.34;61.99;100184.31;5006552;28;20041;-64
2022/05/21 07:47:49;;;;;;;8.88;3.92;;;;;;;15.25;62.71;100183.09;5006260;28;20038;-65
2022/05/21 07:50:15;;;;;;;13.60;5.03;;;;;;;15.23;62.85;100187.66;5006341;28;20645;-63
2022/05/21 07:52:42;;;;;;;14.85;6.30;;;;;;;15.39;62.58;100176.91;5007222;28;20041;-63
2022/05/21 07:55:08;;;;;;;9.95;4.30;;;;;;;15.76;63.03;100171.94;5005325;28;20034;-58
2022/05/21 07:57:33;;;;;;;10.63;4.35;;;;;;;16.39;61.22;100185.56;5006492;28;20034;-54
2022/05/21 07:59:59;;;;;;;8.43;3.55;;;;;;;16.67;59.23;100187.22;5006345;28;20049;-53
2022/05/21 08:02:24;;;;;;;7.15;3.80;;;;;;;16.86;57.19;100179.72;5006396;28;20044;-50
2022/05/21 08:04:50;;;;;;;12.98;4.07;;;;;;;17.02;56.95;100176.81;5006783;28;20084;-58
2022/05/21 08:07:16;;;;;;;18.08;5.97;;;;;;;17.02;56.54;100190.16;5006757;28;20084;-57
2022/05/21 08:09:42;;;;;;;8.15;3.65;;;;;;;17.08;56.35;100199.50;5005957;28;20107;-55
2022/05/21 08:12:08;;;;;;;9.32;3.72;;;;;;;17.23;56.38;100194.91;5009537;28;20057;-53
2022/05/21 08:14:34;;;;;;;11.98;3.83;;;;;;;17.40;55.51;100199.94;5008461;28;20037;-56
2022/05/21 08:17:00;;;;;;;11.48;3.97;;;;;;;17.43;55.19;100199.72;5009586;28;20083;-57
2022/05/21 08:19:26;;;;;;;8.25;4.35;;;;;;;17.48;55.13;100200.22;5009736;28;20088;-56
2022/05/21 08:21:51;;;;;;;7.55;3.92;;;;;;;17.73;54.66;100195.81;5010006;28;20064;-52
2022/05/21 08:27:02;;;;;;;10.05;3.67;;;;;;;18.00;55.66;100195.63;5009221;28;20068;-58
2022/05/21 08:29:29;;;;;;;11.63;3.50;;;;;;;18.10;56.28;100185.13;5009426;28;20046;-57
2022/05/21 08:31:55;;;;;;;13.90;4.65;;;;;;;18.22;53.83;100184.22;5009044;28;20132;-55
2022/05/21 08:34:22;;;;;;;13.73;4.25;;;;;;;18.33;53.88;100191.41;5008944;28;20097;-60
2022/05/21 08:36:48;;;;;;;11.15;3.78;;;;;;;18.60;52.43;100186.66;5009166;28;20406;-59
2022/05/21 08:39:15;;;;;;;10.85;3.65;;;;;;;18.66;51.64;100190.69;5009533;28;20046;-64
2022/05/21 08:41:56;;;;;;;10.73;3.92;;;;;;;18.22;51.41;100187.72;5009302;28;20410;-65
2022/05/21 08:44:43;;;;;;;18.02;4.00;;;;;;;17.71;52.23;100195.91;5009612;28;20065;-63
2022/05/21 08:47:23;;;;;;;9.88;3.63;;;;;;;17.85;52.22;100196.75;5009363;28;20042;-65
2022/05/21 08:50:09;;;;;;;11.70;3.42;;;;;;;17.93;51.55;100191.72;5007628;28;20123;-66
2022/05/21 08:52:42;;;;;;;11.23;4.10;;;;;;;17.73;51.56;100190.47;5009485;28;20033;-63
2022/05/21 08:55:17;;;;;;;13.43;3.70;;;;;;;17.35;52.20;100194.06;5009209;28;20615;-65
2022/05/21 08:57:47;;;;;;;13.18;4.55;;;;;;;17.12;53.46;100201.00;5009305;28;20054;-64
2022/05/21 09:00:19;;;;;;;8.85;3.15;;;;;;;17.26;53.91;100200.91;5008513;28;20049;-65
2022/05/21 09:02:45;;;;;;;13.95;3.90;;;;;;;17.65;52.81;100198.19;5008934;28;20037;-65
2022/05/21 09:05:13;;;;;;;9.05;4.70;;;;;;;18.16;51.54;100190.00;5009067;28;20065;-66
2022/05/21 09:08:18;;;;;;;9.45;3.70;;;;;;;18.46;50.95;100197.56;5007089;28;20042;-62
2022/05/21 09:10:55;;;;;;;8.48;3.47;;;;;;;18.21;50.49;100191.38;5008462;28;20034;-64
2022/05/21 09:13:46;;;;;;;10.93;3.42;;;;;;;18.12;51.60;100199.22;5006480;28;20101;-65
2022/05/21 09:19:00;;;;;;;13.85;3.95;;;;;;;19.40;47.98;100198.34;5008557;28;20696;-66
2022/05/21 09:21:28;;;;;;;9.05;3.20;;;;;;;19.50;48.01;100202.81;5008466;28;20042;-67
2022/05/21 09:24:05;;;;;;;8.40;3.22;;;;;;;20.28;46.31;100184.91;5008238;28;20120;-65
2022/05/21 09:26:49;;;;;;;10.93;3.63;;;;;;;20.56;45.39;100190.66;5008693;28;20042;-66
2022/05/21 09:29:26;;;;;;;15.02;3.20;;;;;;;20.16;45.50;100189.47;5008951;28;20072;-67
2022/05/21 09:31:54;;;;;;;9.15;3.90;;;;;;;19.67;46.72;100196.16;5008348;28;20065;-65
2022/05/21 09:34:26;;;;;;;11.73;3.78;;;;;;;19.58;47.17;100198.69;5008215;28;20116;-65
2022/05/21 09:36:56;;;;;;;11.25;4.88;;;;;;;19.85;45.27;100182.25;5008403;28;20045;-63
2022/05/21 09:39:39;;;;;;;9.40;4.22;;;;;;;20.44;44.06;100192.50;4999559;28;20049;-63
2022/05/21 09:42:07;;;;;;;7.47;3.55;;;;;;;20.84;42.56;100191.81;5007840;28;20058;-62
2022/05/21 09:47:24;;;;;;;8.02;3.30;;;;;;;21.09;40.95;100193.22;5009690;28;20822;-62
2022/05/21 09:50:05;;;;;;;11.48;3.90;;;;;;;21.56;39.67;100193.63;5009909;28;20099;-62
2022/05/21 09:52:32;;;;;;;7.35;3.40;;;;;;;21.68;38.09;100183.63;5011333;28;20124;-62
2022/05/21 09:54:58;;;;;;;9.20;3.65;;;;;;;21.53;39.25;100180.47;5008778;28;20095;-65
2022/05/21 09:57:38;;;;;;;9.23;4.00;;;;;;;21.07;39.84;100187.19;5008635;28;20046;-63
2022/05/21 10:00:24;;;;;;;9.45;4.25;;;;;;;20.28;41.72;100195.63;5009420;28;20038;-64
2022/05/21 10:03:02;;;;;;;10.07;3.55;;;;;;;20.78;40.41;100203.94;5009405;28;20038;-64
2022/05/21 10:05:43;;;;;;;6.63;3.20;;;;;;;21.72;38.35;100209.19;5009124;28;20065;-64
2022/05/21 10:11:31;;;;;;;9.55;4.45;;;;;;;22.76;35.51;100206.06;5007685;28;20048;-65
2022/05/21 10:14:09;;;;;;;9.48;3.72;;;;;;;23.42;33.75;100192.59;5007906;28;20126;-62
2022/05/21 10:16:45;;;;;;;10.10;4.75;;;;;;;23.25;34.17;100196.91;5005939;28;20036;-64
2022/05/21 10:19:35;;;;;;;10.57;4.93;;;;;;;23.54;34.38;100196.78;5006837;28;20037;-65
2022/05/21 10:22:10;;;;;;;7.70;3.88;;;;;;;23.60;34.39;100192.63;5007161;28;20034;-67
2022/05/21 10:24:50;;;;;;;10.02;3.28;;;;;;;24.22;33.58;100182.09;5007646;28;20124;-63
2022/05/21 10:27:24;;;;;;;8.88;4.57;;;;;;;24.12;33.79;100195.63;5006811;28;20046;-64
2022/05/21 10:30:13;;;;;;;8.23;3.55;;;;;;;23.82;34.39;100196.78;5004870;28;20107;-64
2022/05/21 10:32:57;;;;;;;8.18;4.10;;;;;;;22.67;35.50;100191.66;5006050;28;20033;-63
2022/05/21 10:35:38;;;;;;;8.23;4.28;;;;;;;22.75;35.33;100191.78;5007188;28;20050;-65
2022/05/21 10:38:24;;;;;;;9.18;4.13;;;;;;;22.61;36.05;100189.53;5007019;28;20041;-65
2022/05/21 10:41:01;;;;;;;9.85;5.15;;;;;;;23.52;34.07;100185.31;5007681;28;20044;-64
2022/05/21 10:43:52;;;;;;;15.73;4.25;;;;;;;23.93;32.71;100185.81;5007275;28;20474;-64
2022/05/21 10:46:25;;;;;;;8.57;3.50;;;;;;;23.76;32.64;100190.19;4987812;28;20679;-63
2022/05/21 10:49:03;;;;;;;8.40;3.78;;;;;;;24.10;32.58;100186.84;4987901;28;20053;-64
2022/05/21 10:51:49;;;;;;;6.45;3.90;;;;;;;23.33;33.47;100185.41;4987749;28;20513;-65
2022/05/21 10:54:32;;;;;;;11.52;5.20;;;;;;;23.17;34.13;100177.97;4987805;28;20066;-65
2022/05/21 10:57:17;;;;;;;5.93;3.78;;;;;;;22.91;34.61;100188.47;4987292;28;20041;-66
2022/05/21 10:59:46;;;;;;;7.95;3.22;;;;;;;22.26;35.55;100182.91;4987716;28;20044;-66
2022/05/21 11:02:34;;;;;;;7.57;4.32;;;;;;;21.98;36.51;100189.91;5003982;28;20096;-65
2022/05/21 11:05:22;;;;;;;9.93;3.60;;;;;;;21.74;36.54;100188.44;4996731;28;20119;-66
2022/05/21 11:08:10;;;;;;;13.27;3.03;;;;;;;21.46;37.53;100190.03;5007338;28;20065;-65
2022/05/21 11:10:57;;;;;;;7.40;3.20;;;;;;;21.31;37.53;100180.63;5005330;28;20042;-66
2022/05/21 11:13:37;;;;;;;5.05;2.78;;;;;;;21.06;37.85;100198.03;5006645;28;20050;-66
2022/05/21 11:16:25;;;;;;;8.95;3.65;;;;;;;20.91;38.88;100202.88;5007052;28;20041;-65
2022/05/21 11:18:57;;;;;;;6.85;3.58;;;;;;;20.70;39.32;100194.84;5007178;28;20036;-63
2022/05/21 11:21:33;;;;;;;5.80;3.60;;;;;;;20.58;39.04;100186.03;5007004;28;20088;-65
2022/05/21 11:24:03;;;;;;;11.65;6.00;;;;;;;20.65;39.30;100186.34;5006980;28;20383;-64
2022/05/21 11:26:36;;;;;;;6.07;2.47;;;;;;;20.91;38.43;100189.47;5006567;28;20121;-64
2022/05/21 11:29:15;;;;;;;13.30;3.78;;;;;;;21.07;38.33;100181.81;5006602;28;20044;-64
2022/05/21 11:37:24;;;;;;;8.07;3.45;;;;;;;20.94;38.27;100184.69;5006193;28;20073;-63
2022/05/21 11:39:52;;;;;;;8.93;3.08;;;;;;;21.00;38.61;100176.13;4995774;28;20441;-64
2022/05/21 11:42:33;;;;;;;5.47;2.78;;;;;;;21.27;38.58;100173.88;5001714;28;20104;-63
2022/05/21 11:45:08;;;;;;;5.63;2.75;;;;;;;21.48;38.37;100181.88;5007393;28;20378;-64
2022/05/21 11:47:41;;;;;;;9.60;2.90;;;;;;;21.67;38.15;100173.03;5012136;28;20117;-63
2022/05/21 11:50:27;;;;;;;12.88;2.83;;;;;;;21.76;38.16;100181.13;5011327;28;20040;-62
2022/05/21 11:52:56;;;;;;;9.73;3.22;;;;;;;21.65;37.51;100173.16;5013044;28;20466;-65
2022/05/21 11:55:25;;;;;;;6.18;2.90;;;;;;;21.59;37.58;100174.56;5012017;28;20874;-66
2022/05/21 11:57:58;;;;;;;8.77;3.22;;;;;;;21.42;37.50;100173.38;5010620;28;20489;-65
2022/05/21 12:00:24;;;;;;;8.80;3.28;;;;;;;21.41;38.18;100176.19;5011031;28;20053;-65
2022/05/21 12:03:11;;;;;;;5.85;2.97;;;;;;;21.37;37.22;100180.97;5012330;28;20034;-64
2022/05/21 12:05:46;;;;;;;6.85;3.17;;;;;;;21.01;38.11;100171.63;5011269;28;20038;-63